Time;durP1;ratioP1;P1;durP2;ratioP2;P2;SDS_P1;SDS_P2;PMS_P1;PMS_P2;Temp;Humidity;BMP_temperature;BMP_pressure;BME280_temperature;BME280_humidity;BME280_pressure;Samples;Min_cycle;Max_cycle;Signal;HPM_P1;HPM_P2
2022/04/11 00:02:15;;;;;;;10.75;6.93;;;10.10;90.30;;;;;;7341245;19;110361;-87
2022/04/11 00:04:43;;;;;;;10.70;6.50;;;10.10;90.30;;;;;;7339866;19;109107;-86
2022/04/11 00:07:10;;;;;;;11.25;7.05;;;10.20;90.40;;;;;;7341825;19;110266;-87
2022/04/11 00:09:37;;;;;;;12.35;7.05;;;10.10;90.30;;;;;;7342595;19;108466;-87
2022/04/11 00:12:05;;;;;;;8.73;6.40;;;10.10;90.40;;;;;;7342063;19;110871;-86
2022/04/11 00:14:32;;;;;;;7.20;5.55;;;10.10;90.40;;;;;;7340519;19;109869;-87
2022/04/11 00:16:59;;;;;;;6.88;5.63;;;10.10;90.40;;;;;;7341384;19;108388;-87
2022/04/11 00:19:25;;;;;;;;;;;10.10;90.40;;;;;;7347217;19;111588;-87
2022/04/11 00:21:52;;;;;;;9.38;5.50;;;10.10;90.50;;;;;;7344615;19;110717;-87
2022/04/11 00:24:20;;;;;;;11.30;5.72;;;10.00;90.50;;;;;;7341090;19;109441;-87
2022/04/11 00:26:47;;;;;;;9.00;5.53;;;10.00;90.50;;;;;;7341458;19;112801;-87
2022/04/11 00:29:14;;;;;;;7.18;5.47;;;10.10;90.50;;;;;;7341559;19;109169;-87
2022/04/11 00:31:41;;;;;;;7.75;5.80;;;10.10;90.50;;;;;;7342278;19;109823;-87
2022/04/11 00:34:08;;;;;;;5.57;4.82;;;10.00;90.40;;;;;;7340544;19;113713;-87
2022/04/11 00:36:35;;;;;;;10.52;5.82;;;10.00;90.40;;;;;;7338520;19;108691;-87
2022/04/11 00:39:03;;;;;;;9.70;6.07;;;10.10;90.60;;;;;;7341463;19;110032;-87
2022/04/11 00:41:30;;;;;;;10.98;6.20;;;10.00;90.60;;;;;;7347601;19;110224;-87
2022/04/11 00:43:57;;;;;;;8.02;6.10;;;10.00;90.60;;;;;;7341994;19;108836;-87
2022/04/11 00:46:24;;;;;;;9.90;6.15;;;10.00;90.70;;;;;;7337881;19;110456;-87
2022/04/11 00:48:51;;;;;;;7.50;5.93;;;10.00;90.80;;;;;;7341899;19;108971;-87
2022/04/11 00:51:23;;;;;;;8.40;5.95;;;10.00;90.70;;;;;;7341977;19;110176;-86
2022/04/11 00:53:54;;;;;;;11.30;5.60;;;10.00;90.70;;;;;;7340764;19;108569;-86
2022/04/11 00:56:21;;;;;;;7.07;5.35;;;9.90;90.70;;;;;;7341437;19;110296;-87
2022/04/11 00:58:48;;;;;;;8.43;5.43;;;9.90;90.70;;;;;;7341306;19;109232;-87
2022/04/11 01:01:16;;;;;;;8.35;5.75;;;9.90;90.70;;;;;;7339766;19;113395;-87
2022/04/11 01:03:44;;;;;;;9.77;5.35;;;9.80;90.80;;;;;;7346852;19;108645;-87
2022/04/11 01:06:11;;;;;;;9.02;5.82;;;9.80;90.70;;;;;;7339586;19;110200;-87
2022/04/11 01:08:38;;;;;;;8.77;6.20;;;9.80;90.70;;;;;;7339669;19;109112;-87
2022/04/11 01:11:06;;;;;;;7.57;5.50;;;9.80;90.80;;;;;;7338636;19;109460;-87
2022/04/11 01:13:33;;;;;;;8.18;6.10;;;9.80;90.80;;;;;;7340847;19;110036;-87
2022/04/11 01:16:03;;;;;;;9.13;5.72;;;9.80;90.80;;;;;;7339907;19;110644;-87
2022/04/11 01:18:38;;;;;;;8.25;5.60;;;9.80;90.70;;;;;;7339234;19;109780;-87
2022/04/11 01:21:08;;;;;;;7.90;5.38;;;9.80;90.70;;;;;;7338089;19;110479;-88
2022/04/11 01:23:36;;;;;;;7.10;5.68;;;9.70;90.70;;;;;;7339559;19;108430;-87
2022/04/11 01:26:06;;;;;;;9.80;5.65;;;9.70;90.80;;;;;;7343883;19;109309;-87
2022/04/11 01:28:37;;;;;;;8.23;5.32;;;9.70;90.80;;;;;;7341197;19;108940;-87
2022/04/11 01:31:05;;;;;;;8.55;5.55;;;9.70;90.80;;;;;;7339987;19;112059;-89
2022/04/11 01:33:32;;;;;;;9.48;5.57;;;9.60;90.80;;;;;;7338367;19;113184;-88
2022/04/11 01:35:59;;;;;;;6.43;5.40;;;9.60;90.80;;;;;;7340545;19;110847;-88
2022/04/11 01:38:26;;;;;;;9.13;5.45;;;9.60;90.80;;;;;;7338492;19;109536;-88
2022/04/11 01:41:02;;;;;;;5.75;5.15;;;9.60;90.80;;;;;;7339150;19;109861;-87
2022/04/11 01:43:29;;;;;;;8.65;5.40;;;9.60;90.70;;;;;;7340809;19;108602;-87
2022/04/11 01:45:56;;;;;;;8.40;5.57;;;9.50;90.70;;;;;;7342898;19;109556;-87
2022/04/11 01:48:24;;;;;;;13.13;6.10;;;9.50;90.70;;;;;;7340424;19;108912;-87
2022/04/11 01:50:51;;;;;;;9.40;5.40;;;9.50;90.70;;;;;;7340736;19;112844;-88
2022/04/11 01:53:20;;;;;;;7.50;5.55;;;9.40;90.70;;;;;;7337847;19;109860;-87
2022/04/11 01:55:47;;;;;;;7.90;5.63;;;9.40;90.70;;;;;;7338125;19;108462;-87
2022/04/11 01:58:15;;;;;;;8.32;5.80;;;9.40;90.80;;;;;;7338813;19;109372;-87
2022/04/11 02:00:43;;;;;;;10.02;5.90;;;9.30;90.70;;;;;;7337011;19;110771;-87
2022/04/11 02:03:11;;;;;;;9.10;5.55;;;9.30;90.70;;;;;;7339797;19;108597;-86
2022/04/11 02:05:39;;;;;;;9.23;5.43;;;9.30;90.80;;;;;;7336818;19;111068;-87
2022/04/11 02:08:10;;;;;;;9.30;5.65;;;9.20;90.70;;;;;;7349351;19;109805;-88
2022/04/11 02:10:39;;;;;;;12.32;5.35;;;9.20;90.80;;;;;;7345916;19;109187;-88
2022/04/11 02:13:06;;;;;;;8.38;5.63;;;9.20;90.80;;;;;;7346311;19;109622;-88
2022/04/11 02:15:34;;;;;;;10.25;5.43;;;9.10;90.80;;;;;;7345057;19;108635;-89
2022/04/11 02:18:01;;;;;;;8.43;5.57;;;9.00;90.80;;;;;;7344795;19;109265;-88
2022/04/11 02:20:28;;;;;;;6.93;4.93;;;9.00;90.80;;;;;;7347437;19;113010;-87
2022/04/11 02:22:58;;;;;;;6.07;4.90;;;9.00;90.90;;;;;;7346802;19;109015;-88
2022/04/11 02:25:31;;;;;;;7.15;4.90;;;8.90;90.90;;;;;;7343965;19;109740;-87
2022/04/11 02:27:58;;;;;;;7.25;5.18;;;8.80;90.90;;;;;;7344791;19;110475;-87
2022/04/11 02:30:27;;;;;;;6.30;5.45;;;8.80;90.90;;;;;;7352630;19;108757;-88
2022/04/11 02:32:55;;;;;;;7.95;5.50;;;8.70;90.90;;;;;;7347005;19;110350;-88
2022/04/11 02:35:23;;;;;;;8.80;6.53;;;8.70;90.90;;;;;;7345103;19;109640;-88
2022/04/11 02:37:50;;;;;;;8.23;5.32;;;8.70;90.90;;;;;;7342059;19;112239;-88
2022/04/11 02:40:17;;;;;;;7.35;5.28;;;8.60;90.80;;;;;;7345078;19;109214;-88
2022/04/11 02:42:45;;;;;;;7.82;5.53;;;8.60;90.90;;;;;;7344005;19;108411;-87
2022/04/11 02:45:14;;;;;;;10.55;5.68;;;8.50;90.90;;;;;;7344143;19;109448;-87
2022/04/11 02:47:41;;;;;;;11.30;6.03;;;8.50;90.90;;;;;;7345462;19;110151;-86
2022/04/11 02:50:09;;;;;;;10.00;5.72;;;8.40;91.10;;;;;;7343091;19;108325;-87
2022/04/11 02:52:37;;;;;;;8.48;5.72;;;8.30;91.10;;;;;;7348320;19;109278;-87
2022/04/11 02:55:04;;;;;;;8.45;6.10;;;8.20;91.70;;;;;;7341778;19;111102;-87
2022/04/11 02:57:32;;;;;;;7.60;5.30;;;8.10;91.40;;;;;;7345807;19;109391;-87
2022/04/11 02:59:59;;;;;;;13.90;6.07;;;8.10;91.40;;;;;;7342833;19;109950;-87
2022/04/11 03:02:26;;;;;;;9.18;5.60;;;8.10;91.50;;;;;;7345286;19;108284;-87
2022/04/11 03:04:53;;;;;;;11.93;6.32;;;8.00;91.60;;;;;;7346255;19;109914;-87
2022/04/11 03:07:20;;;;;;;10.05;6.03;;;7.90;91.70;;;;;;7341973;19;112445;-88
2022/04/11 03:09:48;;;;;;;8.30;5.95;;;7.90;91.80;;;;;;7344092;19;108536;-87
2022/04/11 03:12:15;;;;;;;9.13;5.80;;;7.90;91.70;;;;;;7342755;19;111495;-86
2022/04/11 03:14:42;;;;;;;12.45;5.80;;;7.80;91.80;;;;;;7347778;19;110099;-88
2022/04/11 03:17:09;;;;;;;11.43;5.78;;;7.70;91.90;;;;;;7342406;19;109871;-87
2022/04/11 03:19:36;;;;;;;7.22;5.25;;;7.70;92.10;;;;;;7344669;19;110569;-87
2022/04/11 03:22:03;;;;;;;;;;;7.50;92.40;;;;;;7344281;19;108480;-87
2022/04/11 03:24:30;;;;;;;7.80;4.95;;;7.50;92.40;;;;;;7349354;19;108670;-87
2022/04/11 03:26:57;;;;;;;9.40;5.38;;;7.40;92.40;;;;;;7341695;19;109175;-88
2022/04/11 03:29:24;;;;;;;7.20;5.30;;;7.40;92.40;;;;;;7345037;19;111274;-87
2022/04/11 03:31:52;;;;;;;7.30;5.95;;;7.40;92.30;;;;;;7342858;19;109406;-88
2022/04/11 03:34:19;;;;;;;8.75;5.75;;;7.40;92.30;;;;;;7345442;19;110452;-87
2022/04/11 03:36:46;;;;;;;6.13;5.10;;;7.40;92.70;;;;;;7346811;19;108699;-87
2022/04/11 03:39:13;;;;;;;13.35;5.68;;;7.30;92.60;;;;;;7340656;19;109157;-87
2022/04/11 03:41:43;;;;;;;7.93;5.68;;;7.30;92.60;;;;;;7345230;19;110639;-88
2022/04/11 03:44:11;;;;;;;8.63;4.90;;;7.20;92.60;;;;;;7345055;19;111013;-87
2022/04/11 03:46:38;;;;;;;9.73;5.22;;;7.20;92.50;;;;;;7342115;19;113308;-87
2022/04/11 03:49:06;;;;;;;9.93;5.38;;;7.20;92.60;;;;;;7344439;19;108528;-88
2022/04/11 03:51:33;;;;;;;13.23;5.50;;;7.10;92.80;;;;;;7342467;19;109124;-88
2022/04/11 03:54:01;;;;;;;12.10;5.68;;;7.10;92.80;;;;;;7344222;19;110661;-87
2022/04/11 03:56:28;;;;;;;10.75;5.00;;;7.00;92.70;;;;;;7349611;19;108450;-88
2022/04/11 03:58:55;;;;;;;9.60;5.35;;;7.00;92.70;;;;;;7342375;19;113740;-87
2022/04/11 04:01:22;;;;;;;12.07;5.90;;;7.00;92.70;;;;;;7343037;19;109249;-88
2022/04/11 04:03:49;;;;;;;11.43;5.33;;;7.00;92.80;;;;;;7344268;19;111274;-87
2022/04/11 04:06:16;;;;;;;8.35;5.05;;;7.00;92.80;;;;;;7343078;19;109093;-88
2022/04/11 04:08:44;;;;;;;8.90;5.23;;;7.00;92.80;;;;;;7342072;19;108670;-88
2022/04/11 04:11:11;;;;;;;8.27;5.00;;;7.00;92.80;;;;;;7342073;19;109400;-88
2022/04/11 04:13:38;;;;;;;7.47;4.90;;;6.90;92.90;;;;;;7341073;19;110388;-88
2022/04/11 04:16:05;;;;;;;9.50;5.00;;;6.90;93.00;;;;;;7342429;19;108513;-88
2022/04/11 04:18:32;;;;;;;7.63;4.83;;;6.80;92.90;;;;;;7348635;19;108421;-87
2022/04/11 04:20:59;;;;;;;6.20;4.53;;;6.80;93.00;;;;;;7342960;19;108405;-87
2022/04/11 04:23:27;;;;;;;12.30;5.10;;;6.80;93.20;;;;;;7343765;19;110344;-88
2022/04/11 04:25:55;;;;;;;19.97;4.63;;;6.80;93.30;;;;;;7341925;19;110116;-88
2022/04/11 04:28:22;;;;;;;14.80;5.20;;;6.80;93.30;;;;;;7340019;19;108489;-88
2022/04/11 04:30:49;;;;;;;22.80;5.70;;;6.80;93.40;;;;;;7340661;19;112503;-87
2022/04/11 04:33:17;;;;;;;20.93;4.70;;;6.80;93.50;;;;;;7342486;19;109412;-88
2022/04/11 04:35:44;;;;;;;12.17;5.20;;;6.80;93.50;;;;;;7340340;19;108559;-87
2022/04/11 04:38:11;;;;;;;15.43;5.33;;;6.80;93.70;;;;;;7341264;19;110608;-88
2022/04/11 04:40:38;;;;;;;17.20;5.40;;;6.80;93.70;;;;;;7346245;19;112906;-88
2022/04/11 04:43:06;;;;;;;15.50;5.13;;;6.80;93.80;;;;;;7343328;19;112715;-88
2022/04/11 04:45:33;;;;;;;28.67;5.47;;;6.80;94.00;;;;;;7342593;19;109663;-87
2022/04/11 04:48:00;;;;;;;10.47;4.83;;;6.80;94.00;;;;;;7338794;19;109493;-87
2022/04/11 04:50:27;;;;;;;16.63;4.80;;;6.80;94.00;;;;;;7340369;19;109769;-87
2022/04/11 04:52:54;;;;;;;;;;;6.80;94.10;;;;;;7343605;19;110263;-88
2022/04/11 04:55:22;;;;;;;11.70;5.07;;;6.80;94.70;;;;;;7344458;19;108887;-87
2022/04/11 04:57:50;;;;;;;9.67;4.70;;;6.70;94.20;;;;;;7341387;19;112771;-88
2022/04/11 05:00:17;;;;;;;13.13;4.50;;;6.70;94.40;;;;;;7339088;19;110567;-88
2022/04/11 05:02:44;;;;;;;16.70;5.37;;;6.80;94.50;;;;;;7346687;19;109123;-88
2022/04/11 05:05:13;;;;;;;23.17;5.50;;;6.80;94.60;;;;;;7340213;19;113621;-88
2022/04/11 05:07:40;;;;;;;18.67;4.80;;;6.80;94.80;;;;;;7340601;19;109168;-88
2022/04/11 05:10:14;;;;;;;16.20;5.03;;;6.80;94.80;;;;;;7339524;19;109833;-86
2022/04/11 05:12:47;;;;;;;15.37;4.80;;;6.80;94.90;;;;;;7337847;19;109147;-86
2022/04/11 05:15:15;;;;;;;18.37;4.33;;;6.90;94.80;;;;;;7339085;19;108680;-85
2022/04/11 05:17:42;;;;;;;17.77;4.50;;;6.90;95.00;;;;;;7337493;19;109249;-85
2022/04/11 05:20:10;;;;;;;9.67;4.40;;;6.90;95.20;;;;;;7340334;19;109690;-86
2022/04/11 05:22:38;;;;;;;14.60;4.97;;;7.00;95.10;;;;;;7337151;19;108512;-85
2022/04/11 05:25:06;;;;;;;25.13;4.70;;;7.00;95.20;;;;;;7343810;19;109995;-91
2022/04/11 05:27:33;;;;;;;12.67;4.20;;;7.00;95.20;;;;;;7340072;19;108408;-84
2022/04/11 05:30:05;;;;;;;6.47;3.67;;;7.10;95.20;;;;;;7335970;19;109739;-86
2022/04/11 05:32:35;;;;;;;11.13;3.43;;;7.10;95.10;;;;;;7337533;19;110678;-85
2022/04/11 05:35:02;;;;;;;10.27;3.73;;;7.20;95.50;;;;;;7339921;19;108847;-85
2022/04/11 05:37:29;;;;;;;7.93;3.80;;;7.20;95.20;;;;;;7335011;19;108798;-86
2022/04/11 05:39:56;;;;;;;6.97;3.80;;;7.20;95.20;;;;;;7334346;19;111339;-86
2022/04/11 05:42:24;;;;;;;8.17;4.10;;;7.30;95.20;;;;;;7344039;19;108806;-85
2022/04/11 05:44:51;;;;;;;6.73;4.13;;;7.30;95.30;;;;;;7345787;19;112487;-85
2022/04/11 05:47:18;;;;;;;7.72;3.50;;;7.40;95.30;;;;;;7347993;19;112167;-86
2022/04/11 05:49:45;;;;;;;6.97;3.70;;;7.40;95.40;;;;;;7344490;19;109275;-86
2022/04/11 05:52:21;;;;;;;7.87;3.63;;;7.40;95.40;;;;;;7345183;19;113231;-86
2022/04/11 05:54:49;;;;;;;5.13;3.00;;;7.50;95.60;;;;;;7343915;19;109600;-87
2022/04/11 05:57:16;;;;;;;6.53;3.77;;;7.50;95.60;;;;;;7344077;19;109502;-86
2022/04/11 05:59:43;;;;;;;4.68;3.25;;;7.60;95.60;;;;;;7344529;19;110371;-86
2022/04/11 06:02:10;;;;;;;4.47;3.28;;;7.70;95.70;;;;;;7344568;19;108442;-86
2022/04/11 06:04:38;;;;;;;6.55;3.25;;;7.70;95.70;;;;;;7339806;19;110913;-86
2022/04/11 06:07:06;;;;;;;5.17;3.10;;;7.80;95.80;;;;;;7347732;19;112645;-87
2022/04/11 06:09:33;;;;;;;8.27;3.30;;;7.80;95.70;;;;;;7341301;19;109434;-86
2022/04/11 06:12:00;;;;;;;6.73;2.97;;;7.90;95.90;;;;;;7343617;19;112534;-87
2022/04/11 06:14:27;;;;;;;8.02;3.38;;;7.90;95.90;;;;;;7343190;19;109152;-86
2022/04/11 06:16:54;;;;;;;7.10;3.90;;;8.00;95.90;;;;;;7345461;19;112582;-87
2022/04/11 06:19:21;;;;;;;10.25;3.75;;;8.00;95.90;;;;;;7343958;19;110511;-86
2022/04/11 06:21:48;;;;;;;4.22;3.30;;;8.10;96.00;;;;;;7343710;19;109132;-87
2022/04/11 06:24:16;;;;;;;7.83;3.43;;;8.10;96.20;;;;;;7303006;19;112593;-87
2022/04/11 06:26:43;;;;;;;8.18;3.50;;;8.20;96.30;;;;;;7345197;19;111037;-88
2022/04/11 06:29:10;;;;;;;5.90;3.58;;;8.20;96.40;;;;;;7352494;19;111218;-88
2022/04/11 06:31:37;;;;;;;8.63;3.60;;;8.20;96.30;;;;;;7346841;19;109937;-89
2022/04/11 06:34:05;;;;;;;5.38;3.33;;;8.30;96.30;;;;;;7347116;19;108308;-87
2022/04/11 06:36:32;;;;;;;7.20;3.35;;;8.40;96.30;;;;;;7342034;19;109308;-87
2022/04/11 06:38:59;;;;;;;8.40;3.58;;;8.50;96.60;;;;;;7343877;19;110216;-88
2022/04/11 06:41:28;;;;;;;10.63;3.50;;;8.50;96.60;;;;;;7344841;19;108912;-87
2022/04/11 06:43:55;;;;;;;10.02;3.70;;;8.60;96.60;;;;;;7343152;19;110021;-86
2022/04/11 06:46:23;;;;;;;;;;;8.70;96.60;;;;;;7342570;19;110605;-86
2022/04/11 06:48:50;;;;;;;6.43;3.20;;;8.70;96.60;;;;;;7343545;19;108718;-86
2022/04/11 06:51:17;;;;;;;5.65;3.50;;;8.80;96.50;;;;;;7345489;19;110899;-85
2022/04/11 06:53:48;;;;;;;6.35;3.67;;;9.00;96.50;;;;;;7343000;19;110496;-86
2022/04/11 06:56:15;;;;;;;14.10;5.50;;;9.00;96.40;;;;;;7342825;19;109468;-86
2022/04/11 06:58:42;;;;;;;;;;;9.20;96.50;;;;;;7342788;19;109578;-86
2022/04/11 07:01:09;;;;;;;7.28;3.90;;;9.20;96.30;;;;;;7344520;19;109705;-86
2022/04/11 07:03:36;;;;;;;6.80;4.20;;;9.30;96.20;;;;;;7343940;19;111211;-86
2022/04/11 07:06:03;;;;;;;6.85;3.22;;;9.40;96.30;;;;;;7341550;19;109834;-88
2022/04/11 07:08:30;;;;;;;6.40;2.97;;;9.50;96.20;;;;;;7339482;19;109439;-88
2022/04/11 07:10:59;;;;;;;6.07;2.58;;;9.60;96.10;;;;;;7343246;19;109547;-86
2022/04/11 07:13:26;;;;;;;4.18;2.83;;;9.70;96.00;;;;;;7346312;19;110496;-86
2022/04/11 07:15:53;;;;;;;6.88;3.20;;;9.80;95.80;;;;;;7342558;19;109382;-86
2022/04/11 07:18:21;;;;;;;6.50;3.55;;;9.90;95.80;;;;;;7344451;19;112322;-86
2022/04/11 07:20:48;;;;;;;6.10;2.97;;;10.00;95.90;;;;;;7339185;19;111658;-86
2022/04/11 07:23:15;;;;;;;4.65;2.72;;;10.10;95.70;;;;;;7340053;19;109072;-87
2022/04/11 07:25:42;;;;;;;;;;;10.10;95.70;;;;;;7342217;19;110221;-84
2022/04/11 07:28:10;;;;;;;5.05;2.28;;;10.20;95.90;;;;;;7342346;19;109292;-86
2022/04/11 07:30:37;;;;;;;6.65;2.70;;;10.30;95.80;;;;;;7340699;19;109601;-86
2022/04/11 07:33:04;;;;;;;8.00;2.88;;;10.50;95.60;;;;;;7342324;19;110198;-86
2022/04/11 07:35:31;;;;;;;5.88;2.33;;;10.60;95.40;;;;;;7345537;19;108448;-86
2022/04/11 07:38:00;;;;;;;5.20;2.25;;;10.70;95.20;;;;;;7343204;19;109194;-86
2022/04/11 07:40:31;;;;;;;4.38;2.55;;;10.80;95.40;;;;;;7340447;19;111022;-86
2022/04/11 07:42:58;;;;;;;5.35;2.20;;;10.90;95.10;;;;;;7340687;19;109873;-86
2022/04/11 07:45:25;;;;;;;;;;;10.90;95.20;;;;;;7340943;19;110592;-86
2022/04/11 07:47:53;;;;;;;4.75;2.08;;;11.00;95.00;;;;;;7343014;19;108839;-86
2022/04/11 07:50:20;;;;;;;6.75;2.47;;;11.20;94.90;;;;;;7339401;19;112726;-86
2022/04/11 07:52:47;;;;;;;4.30;2.38;;;11.30;94.80;;;;;;7339428;19;109500;-87
2022/04/11 07:55:20;;;;;;;5.97;2.38;;;11.30;94.90;;;;;;7339570;19;108185;-88
2022/04/11 07:57:47;;;;;;;3.75;2.00;;;11.40;94.60;;;;;;7346974;19;110760;-88
2022/04/11 08:00:21;;;;;;;5.07;2.20;;;11.50;94.50;;;;;;7339740;19;110010;-89
2022/04/11 08:02:56;;;;;;;8.38;2.10;;;11.60;94.40;;;;;;7339228;19;109613;-88
2022/04/11 08:05:25;;;;;;;5.88;2.10;;;11.80;94.20;;;;;;7344344;19;109309;-88
2022/04/11 08:07:53;;;;;;;6.25;2.05;;;11.90;94.10;;;;;;7333097;19;110840;-86
2022/04/11 08:10:24;;;;;;;3.40;1.85;;;12.00;93.80;;;;;;7342076;19;110752;-89
2022/04/11 08:12:55;;;;;;;5.18;2.10;;;12.10;94.00;;;;;;7341543;19;110221;-89
2022/04/11 08:15:25;;;;;;;5.25;2.15;;;12.20;93.90;;;;;;7340832;19;109301;-89
2022/04/11 08:17:54;;;;;;;4.05;1.88;;;12.30;93.40;;;;;;7344674;19;110318;-89
2022/04/11 08:20:22;;;;;;;4.22;2.10;;;12.30;93.50;;;;;;7339107;19;110640;-88
2022/04/11 08:22:49;;;;;;;5.53;2.00;;;12.40;93.50;;;;;;7337350;19;108645;-88
2022/04/11 08:25:16;;;;;;;4.38;1.90;;;12.50;93.50;;;;;;7341455;19;109380;-88
2022/04/11 08:27:43;;;;;;;4.50;2.28;;;12.70;93.00;;;;;;7342998;19;109942;-89
2022/04/11 08:30:13;;;;;;;6.60;1.73;;;12.80;92.70;;;;;;7340294;19;110726;-87
2022/04/11 08:32:48;;;;;;;5.13;1.75;;;12.90;92.60;;;;;;7341614;19;110569;-88
2022/04/11 08:35:20;;;;;;;7.75;2.15;;;13.00;92.50;;;;;;7342912;19;108404;-88
2022/04/11 08:37:48;;;;;;;4.03;1.83;;;13.10;92.20;;;;;;7339229;19;109830;-87
2022/04/11 08:40:18;;;;;;;4.20;1.92;;;13.10;92.30;;;;;;7348141;19;110330;-89
2022/04/11 08:42:50;;;;;;;3.35;1.75;;;13.20;92.10;;;;;;7344367;19;109760;-89
2022/04/11 08:45:22;;;;;;;5.55;2.08;;;13.30;91.90;;;;;;7343095;19;112361;-89
2022/04/11 08:47:59;;;;;;;4.55;1.80;;;13.40;91.70;;;;;;7342464;19;108281;-87
2022/04/11 08:50:27;;;;;;;3.95;1.75;;;13.60;91.50;;;;;;7341114;19;108438;-89
2022/04/11 08:52:56;;;;;;;7.00;1.80;;;13.60;90.90;;;;;;7343133;19;110317;-88
2022/04/11 08:55:23;;;;;;;4.40;1.77;;;13.60;91.00;;;;;;7341337;19;108255;-89
2022/04/11 08:57:58;;;;;;;3.45;1.70;;;13.80;91.30;;;;;;7340614;19;113093;-88
2022/04/11 09:00:25;;;;;;;3.78;1.88;;;13.90;91.20;;;;;;7342133;19;111753;-88
2022/04/11 09:02:52;;;;;;;7.97;2.03;;;13.90;90.20;;;;;;7343611;19;108189;-87
2022/04/11 09:05:21;;;;;;;4.43;2.17;;;14.00;90.60;;;;;;7339500;19;112697;-86
2022/04/11 09:07:54;;;;;;;4.70;2.33;;;14.10;90.60;;;;;;7337882;19;109175;-87
2022/04/11 09:10:41;;;;;;;5.30;1.70;;;14.20;89.70;;;;;;7340916;19;109002;-87
2022/04/11 09:13:09;;;;;;;3.30;1.60;;;14.30;89.50;;;;;;7338171;19;112320;-88
2022/04/11 09:15:42;;;;;;;6.50;2.10;;;14.30;90.20;;;;;;7337947;19;108766;-87
2022/04/11 09:18:09;;;;;;;3.42;1.70;;;14.50;90.20;;;;;;7339541;19;108847;-87
2022/04/11 09:20:41;;;;;;;4.30;1.60;;;14.60;89.90;;;;;;7338555;19;110340;-87
2022/04/11 09:23:19;;;;;;;6.82;1.85;;;14.70;88.00;;;;;;7339511;19;108693;-88
2022/04/11 09:25:48;;;;;;;5.10;1.75;;;14.70;87.50;;;;;;7344512;19;108783;-88
2022/04/11 09:28:16;;;;;;;3.83;1.70;;;14.70;86.80;;;;;;7337341;19;109537;-86
2022/04/11 09:30:44;;;;;;;7.85;2.00;;;14.80;86.30;;;;;;7337199;19;108871;-86
2022/04/11 09:33:12;;;;;;;4.07;1.73;;;14.80;86.50;;;;;;7335314;19;109387;-87
2022/04/11 09:35:44;;;;;;;4.63;1.88;;;14.90;86.20;;;;;;7338320;19;109969;-86
2022/04/11 09:38:17;;;;;;;3.70;1.70;;;15.00;86.80;;;;;;7340515;19;108842;-86
2022/04/11 09:40:50;;;;;;;4.68;1.50;;;15.10;85.90;;;;;;7338661;19;110249;-87
2022/04/11 09:43:39;;;;;;;5.05;1.75;;;15.20;86.00;;;;;;7339049;19;109678;-87
2022/04/11 09:46:06;;;;;;;5.53;1.58;;;15.30;85.70;;;;;;7337472;19;111645;-87
2022/04/11 09:48:37;;;;;;;6.63;1.70;;;15.50;84.00;;;;;;7343339;19;109017;-86
2022/04/11 09:51:15;;;;;;;5.22;1.80;;;15.50;83.20;;;;;;7338969;19;111433;-87
2022/04/11 09:53:43;;;;;;;5.18;1.73;;;15.60;83.00;;;;;;7339351;19;112783;-88
2022/04/11 09:56:11;;;;;;;4.80;1.55;;;15.60;82.80;;;;;;7338770;19;110048;-87
2022/04/11 09:58:40;;;;;;;6.82;1.63;;;15.70;82.10;;;;;;7337609;19;109957;-89
2022/04/11 10:01:08;;;;;;;5.53;1.58;;;15.80;81.40;;;;;;7340330;19;109560;-88
2022/04/11 10:03:36;;;;;;;3.10;1.23;;;15.80;80.80;;;;;;7338936;19;108640;-88
2022/04/11 10:06:04;;;;;;;3.92;1.30;;;15.90;81.10;;;;;;7336993;19;108680;-88
2022/04/11 10:08:33;;;;;;;2.42;1.10;;;15.90;81.00;;;;;;7339841;19;112795;-88
2022/04/11 10:11:01;;;;;;;3.42;1.40;;;16.00;80.90;;;;;;7343332;19;108117;-89
2022/04/11 10:13:30;;;;;;;4.88;1.63;;;16.10;82.10;;;;;;7341266;19;108541;-88
2022/04/11 10:15:58;;;;;;;4.65;1.30;;;16.30;79.70;;;;;;7338927;19;108360;-88
2022/04/11 10:18:27;;;;;;;5.43;1.20;;;16.30;80.10;;;;;;7339347;19;112352;-88
2022/04/11 10:21:14;;;;;;;7.43;1.50;;;16.40;79.40;;;;;;7340459;19;108726;-88
2022/04/11 10:24:06;;;;;;;5.72;1.38;;;16.60;77.30;;;;;;7338256;19;108691;-88
2022/04/11 10:27:23;;;;;;;3.05;1.40;;;16.60;76.80;;;;;;7339523;19;112017;-88
2022/04/11 10:29:52;;;;;;;6.13;1.15;;;16.60;72.90;;;;;;7341948;19;110466;-88
2022/04/11 10:32:21;;;;;;;2.78;1.40;;;16.50;76.00;;;;;;7350681;19;110206;-87
2022/04/11 10:34:57;;;;;;;5.90;1.35;;;16.60;75.80;;;;;;7344557;19;109042;-88
2022/04/11 10:37:26;;;;;;;5.13;1.20;;;16.60;75.30;;;;;;7342920;19;110443;-90
2022/04/11 10:40:19;;;;;;;3.70;1.08;;;16.60;74.50;;;;;;7344648;19;109306;-88
2022/04/11 10:43:01;;;;;;;5.00;1.20;;;16.70;75.00;;;;;;7343458;19;110050;-88
2022/04/11 10:45:40;;;;;;;13.90;1.70;;;16.70;73.00;;;;;;7342157;19;110821;-92
2022/04/11 10:48:10;;;;;;;4.72;1.30;;;16.70;72.30;;;;;;7337608;19;109708;-86
2022/04/11 10:50:38;;;;;;;5.40;1.30;;;16.70;71.20;;;;;;7341944;19;110221;-90
2022/04/11 10:53:24;;;;;;;6.90;1.30;;;16.80;71.20;;;;;;7345116;19;109269;-87
2022/04/11 10:55:58;;;;;;;2.33;1.20;;;16.90;70.80;;;;;;7350597;19;110769;-88
2022/04/11 10:58:47;;;;;;;2.13;1.40;;;17.00;70.70;;;;;;7342082;19;110462;-89
2022/04/11 11:01:15;;;;;;;5.10;1.30;;;17.00;70.60;;;;;;7343496;19;109526;-88
2022/04/11 11:03:59;;;;;;;3.13;1.40;;;17.10;72.00;;;;;;7343730;19;110605;-89
2022/04/11 11:06:26;;;;;;;4.03;1.27;;;17.20;72.30;;;;;;7344475;19;109180;-90
2022/04/11 11:08:53;;;;;;;2.80;1.33;;;17.30;72.10;;;;;;7345877;19;111968;-88
2022/04/11 11:11:23;;;;;;;4.53;1.67;;;17.30;72.10;;;;;;7345663;19;110301;-90
2022/04/11 11:13:52;;;;;;;4.35;1.60;;;17.50;71.40;;;;;;7348321;19;108161;-89
2022/04/11 11:16:19;;;;;;;4.00;1.50;;;17.50;70.10;;;;;;7346981;19;108616;-89
2022/04/11 11:19:10;;;;;;;5.63;1.50;;;17.50;69.90;;;;;;7351525;19;111679;-89
2022/04/11 11:21:41;;;;;;;3.53;1.58;;;17.60;69.90;;;;;;7346550;19;110247;-89
2022/04/11 11:24:10;;;;;;;6.57;2.13;;;17.60;69.80;;;;;;7340671;19;110211;-90
2022/04/11 11:26:48;;;;;;;4.22;1.40;;;17.70;69.00;;;;;;7345324;19;108689;-88
2022/04/11 11:29:18;;;;;;;6.97;1.83;;;17.70;68.70;;;;;;7343870;19;109403;-89
2022/04/11 11:31:50;;;;;;;6.63;1.67;;;17.70;67.20;;;;;;7344966;19;109706;-89
2022/04/11 11:34:20;;;;;;;10.63;1.70;;;17.80;67.60;;;;;;7343992;19;110124;-87
2022/04/11 11:36:48;;;;;;;3.95;1.65;;;17.90;68.10;;;;;;7344390;19;111339;-91
2022/04/11 11:39:23;;;;;;;6.43;1.60;;;18.00;67.10;;;;;;7342668;19;112565;-88
2022/04/11 11:41:52;;;;;;;10.30;1.70;;;18.00;65.80;;;;;;7348264;19;110406;-89
2022/04/11 11:44:20;;;;;;;7.78;1.50;;;18.10;67.50;;;;;;7342596;19;111435;-90
2022/04/11 11:47:02;;;;;;;7.50;1.63;;;18.10;67.20;;;;;;7344812;19;108417;-89
2022/04/11 11:49:38;;;;;;;3.83;1.25;;;18.20;68.10;;;;;;7341986;19;109833;-89
2022/04/11 11:52:17;;;;;;;3.05;1.20;;;18.40;68.00;;;;;;7343519;19;109511;-88
2022/04/11 11:54:46;;;;;;;3.95;1.60;;;18.50;68.50;;;;;;7341127;19;108810;-88
2022/04/11 11:57:22;;;;;;;5.40;1.48;;;18.60;66.80;;;;;;7340256;19;109370;-87
2022/04/11 11:59:50;;;;;;;3.92;1.30;;;18.70;64.80;;;;;;7343991;19;110163;-89
2022/04/11 12:05:32;;;;;;;3.70;1.55;;;18.70;65.10;;;;;;7344561;19;110594;-87
2022/04/11 12:08:02;;;;;;;4.25;1.45;;;18.80;66.20;;;;;;7340864;19;108558;-88
2022/04/11 12:10:30;;;;;;;4.40;1.60;;;18.90;66.80;;;;;;7340377;19;108869;-87
2022/04/11 12:12:57;;;;;;;5.82;1.80;;;19.00;66.00;;;;;;7340851;19;109516;-89
2022/04/11 12:15:31;;;;;;;3.28;1.70;;;19.20;65.80;;;;;;7341998;19;109218;-88
2022/04/11 12:18:09;;;;;;;7.70;1.80;;;19.20;65.70;;;;;;7339669;19;111016;-89
2022/04/11 12:20:37;;;;;;;7.15;1.90;;;19.40;64.40;;;;;;7340361;19;113028;-88
2022/04/11 12:23:12;;;;;;;2.53;1.40;;;19.40;61.60;;;;;;7340748;19;108873;-89
2022/04/11 12:25:40;;;;;;;4.03;1.40;;;19.40;61.80;;;;;;7336771;19;108779;-88
2022/04/11 12:28:18;;;;;;;2.63;1.13;;;19.40;63.40;;;;;;7342509;19;108293;-89
2022/04/11 12:30:45;;;;;;;4.63;1.42;;;19.40;65.30;;;;;;7338995;19;110870;-88
2022/04/11 12:33:43;;;;;;;4.05;1.48;;;19.60;65.20;;;;;;7340688;19;110750;-87
2022/04/11 12:36:17;;;;;;;4.67;1.30;;;19.70;62.20;;;;;;7338414;19;111107;-89
2022/04/11 12:38:54;;;;;;;4.13;1.30;;;19.90;64.90;;;;;;7340420;19;110752;-88
2022/04/11 12:41:47;;;;;;;3.70;1.10;;;20.00;63.80;;;;;;7343997;19;109666;-88
2022/04/11 12:44:19;;;;;;;2.60;1.05;;;20.00;62.30;;;;;;7342004;19;109203;-87
2022/04/11 12:46:48;;;;;;;2.88;1.17;;;20.00;62.50;;;;;;7342538;19;109203;-89
2022/04/11 12:49:17;;;;;;;3.33;1.33;;;20.10;63.10;;;;;;7345117;19;110261;-89
2022/04/11 12:51:57;;;;;;;3.88;1.40;;;20.20;61.90;;;;;;7342368;19;111973;-89
2022/04/11 12:54:40;;;;;;;6.05;1.52;;;20.20;64.50;;;;;;7339680;19;109678;-88
2022/04/11 12:57:10;;;;;;;4.38;1.33;;;20.30;60.20;;;;;;7341118;19;108620;-90